SAS7223 EKCH-LEIB
Flight info
| Callsign | SAS7223 |
|---|---|
| Flight time | 2h 56m |
| Altitude | 38000 |
| Route | NEXEN T503 MICOS DCT BOMBI DCT GIGET DCT ABUKA DCT KRH DCT NATOR DCT LUTIX DCT BENOT DCT NEMOS DCT GEVEA DCT INCUS DCT BALSI DCT RETNO DCT TUPOX DCT MTG DCT DIVKO DCT VATIR N852 PIVUS Z237 SULID DCT DIMIB DCT POS |
| Aircraft | A319/M-SDE3FGIJ1RWXY/LB1 |
Departure
| Time | 2026-05-06 19:16 |
|---|---|
| Airport | Copenhagen Kastrup Airport (EKCH) |
Arrival
| Time | 2026-05-06 22:12 |
|---|---|
| Airport | Ibiza Airport (LEIB) |
| Time | Latitude | Longitude | Altitude | Speed | Heading |
|---|---|---|---|---|---|
| 2026-05-06 18:46 | 55.62565 | 12.64513 | 17 ft | 0 kts | 16° |
| 2026-05-06 19:00 | 55.62564 | 12.64513 | -10 ft | 0 kts | 16° |
| 2026-05-06 19:03 | 55.62563 | 12.64513 | -10 ft | 2 kts | 16° |
| 2026-05-06 19:03 | 55.62538 | 12.64500 | 18 ft | 4 kts | 16° |
| 2026-05-06 19:04 | 55.62517 | 12.64490 | 19 ft | 4 kts | 25° |
| 2026-05-06 19:04 | 55.62503 | 12.64466 | 21 ft | 4 kts | 101° |
| 2026-05-06 19:04 | 55.62508 | 12.64443 | 18 ft | 0 kts | 123° |
| 2026-05-06 19:04 | 55.62494 | 12.64479 | 18 ft | 4 kts | 123° |
| 2026-05-06 19:05 | 55.62485 | 12.64504 | 19 ft | 0 kts | 123° |
| 2026-05-06 19:10 | 55.62477 | 12.64518 | 17 ft | 0 kts | 152° |
| 2026-05-06 19:10 | 55.62466 | 12.64546 | 19 ft | 5 kts | 122° |
| 2026-05-06 19:10 | 55.62442 | 12.64616 | 17 ft | 8 kts | 120° |
| 2026-05-06 19:11 | 55.62393 | 12.64670 | 17 ft | 10 kts | 185° |
| 2026-05-06 19:11 | 55.62375 | 12.64567 | 18 ft | 11 kts | 299° |
| 2026-05-06 19:11 | 55.62367 | 12.64442 | 17 ft | 12 kts | 210° |
| 2026-05-06 19:11 | 55.62274 | 12.64395 | 16 ft | 16 kts | 196° |
| 2026-05-06 19:12 | 55.62153 | 12.64308 | 19 ft | 20 kts | 205° |
| 2026-05-06 19:12 | 55.62015 | 12.64192 | 17 ft | 24 kts | 205° |
| 2026-05-06 19:12 | 55.61871 | 12.64072 | 17 ft | 18 kts | 200° |
| 2026-05-06 19:12 | 55.61752 | 12.64080 | 18 ft | 12 kts | 176° |
| 2026-05-06 19:13 | 55.61737 | 12.64082 | 20 ft | 0 kts | 176° |
| 2026-05-06 19:14 | 55.61733 | 12.64082 | 20 ft | 3 kts | 176° |
| 2026-05-06 19:15 | 55.61687 | 12.64088 | 21 ft | 9 kts | 175° |
| 2026-05-06 19:15 | 55.61626 | 12.64074 | 21 ft | 10 kts | 209° |
| 2026-05-06 19:15 | 55.61553 | 12.63963 | 19 ft | 23 kts | 220° |
| 2026-05-06 19:15 | 55.61278 | 12.63538 | 20 ft | 82 kts | 221° |
| 2026-05-06 19:16 | 55.60710 | 12.62666 | 20 ft | 136 kts | 221° |
| 2026-05-06 19:16 | 55.59894 | 12.61433 | 324 ft | 157 kts | 218° |
| 2026-05-06 19:16 | 55.59072 | 12.60163 | 930 ft | 163 kts | 216° |
| 2026-05-06 19:16 | 55.58177 | 12.58798 | 1351 ft | 180 kts | 217° |
| 2026-05-06 19:17 | 55.57172 | 12.57260 | 1672 ft | 203 kts | 217° |
| 2026-05-06 19:17 | 55.56010 | 12.55643 | 2088 ft | 222 kts | 212° |
| 2026-05-06 19:17 | 55.54696 | 12.54004 | 2680 ft | 237 kts | 211° |
| 2026-05-06 19:17 | 55.53278 | 12.52280 | 3267 ft | 258 kts | 212° |
| 2026-05-06 19:18 | 55.51774 | 12.50457 | 4158 ft | 265 kts | 212° |
| 2026-05-06 19:18 | 55.50738 | 12.49199 | 4823 ft | 269 kts | 212° |
| 2026-05-06 19:18 | 55.49197 | 12.47324 | 5737 ft | 275 kts | 213° |
| 2026-05-06 19:18 | 55.47608 | 12.45382 | 6652 ft | 281 kts | 213° |
| 2026-05-06 19:19 | 55.45965 | 12.43370 | 7524 ft | 286 kts | 214° |
| 2026-05-06 19:19 | 55.44328 | 12.41367 | 8508 ft | 286 kts | 214° |
| 2026-05-06 19:19 | 55.42710 | 12.39386 | 9480 ft | 287 kts | 215° |
| 2026-05-06 19:19 | 55.41038 | 12.37344 | 10272 ft | 296 kts | 215° |
| 2026-05-06 19:20 | 55.39278 | 12.35204 | 10540 ft | 319 kts | 215° |
| 2026-05-06 19:20 | 55.37404 | 12.32929 | 10972 ft | 333 kts | 216° |
| 2026-05-06 19:20 | 55.35484 | 12.30602 | 11678 ft | 338 kts | 215° |
| 2026-05-06 19:20 | 55.33538 | 12.28245 | 12437 ft | 341 kts | 216° |
| 2026-05-06 19:21 | 55.31576 | 12.25867 | 13160 ft | 345 kts | 216° |
| 2026-05-06 19:21 | 55.29594 | 12.23467 | 13901 ft | 348 kts | 216° |
| 2026-05-06 19:21 | 55.27598 | 12.21051 | 14556 ft | 350 kts | 216° |
| 2026-05-06 19:21 | 55.25608 | 12.18647 | 15194 ft | 353 kts | 216° |
| 2026-05-06 19:22 | 55.23576 | 12.16198 | 15848 ft | 356 kts | 216° |
| 2026-05-06 19:22 | 55.21527 | 12.13731 | 16518 ft | 358 kts | 216° |
| 2026-05-06 19:22 | 55.19469 | 12.11247 | 17180 ft | 361 kts | 217° |
| 2026-05-06 19:22 | 55.17420 | 12.08689 | 17841 ft | 362 kts | 217° |
| 2026-05-06 19:23 | 55.15388 | 12.06082 | 18551 ft | 362 kts | 218° |
| 2026-05-06 19:23 | 55.13359 | 12.03446 | 19148 ft | 364 kts | 218° |
| 2026-05-06 19:23 | 55.11319 | 12.00794 | 19730 ft | 367 kts | 218° |
| 2026-05-06 19:23 | 55.09260 | 11.98130 | 20304 ft | 370 kts | 218° |
| 2026-05-06 19:24 | 55.07178 | 11.95461 | 20875 ft | 372 kts | 218° |
| 2026-05-06 19:24 | 55.05078 | 11.92790 | 21439 ft | 375 kts | 218° |
| 2026-05-06 19:24 | 55.02961 | 11.90104 | 21982 ft | 378 kts | 218° |
| 2026-05-06 19:24 | 55.00826 | 11.87400 | 22513 ft | 381 kts | 218° |
| 2026-05-06 19:25 | 54.98676 | 11.84685 | 23022 ft | 383 kts | 218° |
| 2026-05-06 19:25 | 54.96510 | 11.81948 | 23520 ft | 386 kts | 218° |
| 2026-05-06 19:25 | 54.94330 | 11.79191 | 23923 ft | 389 kts | 217° |
| 2026-05-06 19:25 | 54.92129 | 11.76413 | 24300 ft | 393 kts | 217° |
| 2026-05-06 19:26 | 54.89908 | 11.73615 | 24706 ft | 395 kts | 217° |
| 2026-05-06 19:26 | 54.87673 | 11.70804 | 25121 ft | 398 kts | 217° |
| 2026-05-06 19:26 | 54.85426 | 11.67981 | 25528 ft | 400 kts | 217° |
| 2026-05-06 19:26 | 54.83168 | 11.65146 | 25946 ft | 402 kts | 217° |
| 2026-05-06 19:27 | 54.80897 | 11.62297 | 26358 ft | 404 kts | 217° |
| 2026-05-06 19:27 | 54.78614 | 11.59437 | 26772 ft | 406 kts | 216° |
| 2026-05-06 19:27 | 54.76317 | 11.56564 | 27186 ft | 408 kts | 216° |
| 2026-05-06 19:27 | 54.74006 | 11.53682 | 27592 ft | 410 kts | 216° |
| 2026-05-06 19:28 | 54.71713 | 11.50831 | 27978 ft | 413 kts | 216° |
| 2026-05-06 19:28 | 54.69341 | 11.47887 | 28332 ft | 416 kts | 216° |
| 2026-05-06 19:28 | 54.67014 | 11.45002 | 28699 ft | 419 kts | 216° |
| 2026-05-06 19:28 | 54.64641 | 11.42060 | 29052 ft | 421 kts | 215° |
| 2026-05-06 19:29 | 54.62254 | 11.39101 | 29408 ft | 424 kts | 215° |
| 2026-05-06 19:29 | 54.59853 | 11.36128 | 29769 ft | 426 kts | 215° |
| 2026-05-06 19:29 | 54.57444 | 11.33153 | 30148 ft | 426 kts | 215° |
| 2026-05-06 19:29 | 54.55028 | 11.30175 | 30460 ft | 428 kts | 215° |
| 2026-05-06 19:30 | 54.52598 | 11.27195 | 30749 ft | 430 kts | 215° |
| 2026-05-06 19:30 | 54.50154 | 11.24219 | 31055 ft | 431 kts | 215° |
| 2026-05-06 19:30 | 54.47710 | 11.21252 | 31436 ft | 430 kts | 215° |
| 2026-05-06 19:30 | 54.45256 | 11.18280 | 31731 ft | 432 kts | 215° |
| 2026-05-06 19:31 | 54.42797 | 11.15306 | 32071 ft | 433 kts | 215° |
| 2026-05-06 19:31 | 54.40335 | 11.12330 | 32468 ft | 432 kts | 216° |
| 2026-05-06 19:31 | 54.35430 | 11.06411 | 33282 ft | 430 kts | 216° |
| 2026-05-06 19:32 | 54.32982 | 11.03461 | 33694 ft | 429 kts | 216° |
| 2026-05-06 19:32 | 54.30437 | 11.00795 | 34061 ft | 429 kts | 207° |
| 2026-05-06 19:32 | 54.27677 | 10.98851 | 34392 ft | 430 kts | 200° |
| 2026-05-06 19:32 | 54.24840 | 10.97239 | 34706 ft | 430 kts | 200° |
| 2026-05-06 19:33 | 54.22001 | 10.95622 | 34996 ft | 430 kts | 200° |
| 2026-05-06 19:33 | 54.19162 | 10.94004 | 35289 ft | 430 kts | 200° |
| 2026-05-06 19:33 | 54.16324 | 10.92385 | 35591 ft | 430 kts | 200° |
| 2026-05-06 19:33 | 54.13487 | 10.90767 | 35882 ft | 429 kts | 200° |
| 2026-05-06 19:34 | 54.10656 | 10.89154 | 36176 ft | 429 kts | 200° |
| 2026-05-06 19:34 | 54.07826 | 10.87548 | 36461 ft | 428 kts | 200° |
| 2026-05-06 19:34 | 54.05001 | 10.85946 | 36735 ft | 428 kts | 200° |
| 2026-05-06 19:34 | 54.02176 | 10.84346 | 37006 ft | 428 kts | 200° |
| 2026-05-06 19:35 | 53.99357 | 10.82749 | 37259 ft | 427 kts | 200° |
| 2026-05-06 19:35 | 53.96537 | 10.81153 | 37518 ft | 427 kts | 200° |
| 2026-05-06 19:35 | 53.93718 | 10.79559 | 37771 ft | 427 kts | 200° |
| 2026-05-06 19:35 | 53.90898 | 10.77968 | 37902 ft | 427 kts | 200° |
| 2026-05-06 19:36 | 53.85270 | 10.74812 | 37921 ft | 428 kts | 200° |
| 2026-05-06 19:36 | 53.79585 | 10.71627 | 37921 ft | 432 kts | 200° |
| 2026-05-06 19:37 | 53.73866 | 10.68434 | 37920 ft | 434 kts | 200° |
| 2026-05-06 19:37 | 53.68172 | 10.65261 | 37918 ft | 434 kts | 200° |
| 2026-05-06 19:38 | 53.62440 | 10.62069 | 37909 ft | 434 kts | 200° |
| 2026-05-06 19:38 | 53.56705 | 10.58894 | 37905 ft | 434 kts | 200° |
| 2026-05-06 19:39 | 53.50967 | 10.55724 | 37895 ft | 434 kts | 200° |
| 2026-05-06 19:39 | 53.45229 | 10.52556 | 37886 ft | 434 kts | 200° |
| 2026-05-06 19:40 | 53.39484 | 10.49398 | 37889 ft | 435 kts | 200° |
| 2026-05-06 19:40 | 53.33737 | 10.46259 | 37887 ft | 435 kts | 200° |
| 2026-05-06 19:41 | 53.27977 | 10.43121 | 37865 ft | 436 kts | 200° |
| 2026-05-06 19:41 | 53.22215 | 10.39975 | 37871 ft | 436 kts | 200° |
| 2026-05-06 19:42 | 53.16446 | 10.36837 | 37879 ft | 436 kts | 200° |
| 2026-05-06 19:42 | 53.10677 | 10.33707 | 37881 ft | 436 kts | 200° |
| 2026-05-06 19:43 | 53.04904 | 10.30590 | 37886 ft | 436 kts | 200° |
| 2026-05-06 19:43 | 52.99127 | 10.27479 | 37892 ft | 437 kts | 200° |
| 2026-05-06 19:44 | 52.93344 | 10.24374 | 37896 ft | 437 kts | 200° |
| 2026-05-06 19:44 | 52.87560 | 10.21277 | 37898 ft | 437 kts | 200° |
| 2026-05-06 19:45 | 52.81779 | 10.18189 | 37891 ft | 437 kts | 200° |
| 2026-05-06 19:45 | 52.75998 | 10.15103 | 37880 ft | 436 kts | 199° |
| 2026-05-06 19:46 | 52.70218 | 10.12040 | 37863 ft | 436 kts | 199° |
| 2026-05-06 19:46 | 52.64477 | 10.09006 | 37865 ft | 436 kts | 199° |
| 2026-05-06 19:47 | 52.58697 | 10.05954 | 37869 ft | 436 kts | 199° |
| 2026-05-06 19:47 | 52.52910 | 10.02901 | 37863 ft | 437 kts | 199° |
| 2026-05-06 19:48 | 52.47123 | 9.99867 | 37858 ft | 437 kts | 199° |
| 2026-05-06 19:48 | 52.41295 | 9.96807 | 37880 ft | 437 kts | 199° |
| 2026-05-06 19:49 | 52.35537 | 9.93794 | 37877 ft | 437 kts | 199° |
| 2026-05-06 19:49 | 52.29735 | 9.90774 | 37862 ft | 438 kts | 199° |
| 2026-05-06 19:50 | 52.23926 | 9.87759 | 37864 ft | 438 kts | 199° |
| 2026-05-06 19:50 | 52.18112 | 9.84737 | 37867 ft | 439 kts | 199° |
| 2026-05-06 19:51 | 52.12290 | 9.81727 | 37861 ft | 439 kts | 199° |
| 2026-05-06 19:51 | 52.06467 | 9.78736 | 37856 ft | 439 kts | 199° |
| 2026-05-06 19:52 | 52.00648 | 9.75750 | 37857 ft | 439 kts | 199° |
| 2026-05-06 19:52 | 51.94827 | 9.72771 | 37850 ft | 439 kts | 199° |
| 2026-05-06 19:53 | 51.89010 | 9.69790 | 37851 ft | 438 kts | 199° |
| 2026-05-06 19:53 | 51.83191 | 9.66823 | 37853 ft | 438 kts | 199° |
| 2026-05-06 19:54 | 51.77372 | 9.63871 | 37849 ft | 438 kts | 199° |
| 2026-05-06 19:54 | 51.71551 | 9.60916 | 37840 ft | 439 kts | 199° |
| 2026-05-06 19:55 | 51.65729 | 9.57968 | 37835 ft | 439 kts | 199° |
| 2026-05-06 19:55 | 51.59900 | 9.55032 | 37843 ft | 439 kts | 199° |
| 2026-05-06 19:56 | 51.54065 | 9.52098 | 37846 ft | 439 kts | 199° |
| 2026-05-06 19:56 | 51.48234 | 9.49174 | 37845 ft | 439 kts | 199° |
| 2026-05-06 19:57 | 51.42404 | 9.46259 | 37832 ft | 439 kts | 199° |
| 2026-05-06 19:57 | 51.36577 | 9.43349 | 37835 ft | 438 kts | 199° |
| 2026-05-06 19:58 | 51.30749 | 9.40460 | 37841 ft | 439 kts | 198° |
| 2026-05-06 19:58 | 51.24918 | 9.37566 | 37845 ft | 439 kts | 199° |
| 2026-05-06 19:59 | 51.19087 | 9.34675 | 37833 ft | 439 kts | 198° |
| 2026-05-06 19:59 | 51.13258 | 9.31798 | 37834 ft | 438 kts | 198° |
| 2026-05-06 20:00 | 51.07428 | 9.28931 | 37834 ft | 439 kts | 198° |
| 2026-05-06 20:00 | 51.01639 | 9.26083 | 37838 ft | 439 kts | 198° |
| 2026-05-06 20:01 | 50.95805 | 9.23223 | 37839 ft | 439 kts | 198° |
| 2026-05-06 20:01 | 50.89966 | 9.20368 | 37843 ft | 439 kts | 198° |
| 2026-05-06 20:02 | 50.84129 | 9.17530 | 37845 ft | 439 kts | 198° |
| 2026-05-06 20:02 | 50.78290 | 9.14697 | 37843 ft | 439 kts | 198° |
| 2026-05-06 20:03 | 50.72455 | 9.11865 | 37841 ft | 439 kts | 198° |
| 2026-05-06 20:03 | 50.66617 | 9.09039 | 37839 ft | 439 kts | 198° |
| 2026-05-06 20:04 | 50.60779 | 9.06219 | 37839 ft | 439 kts | 198° |
| 2026-05-06 20:04 | 50.54938 | 9.03420 | 37839 ft | 439 kts | 198° |
| 2026-05-06 20:05 | 50.50081 | 9.01102 | 37830 ft | 439 kts | 198° |
| 2026-05-06 20:05 | 50.44240 | 8.98311 | 37835 ft | 439 kts | 198° |
| 2026-05-06 20:06 | 50.38397 | 8.95518 | 37842 ft | 439 kts | 198° |
| 2026-05-06 20:06 | 50.32551 | 8.92729 | 37841 ft | 439 kts | 198° |
| 2026-05-06 20:07 | 50.26707 | 8.89958 | 37841 ft | 439 kts | 198° |
| 2026-05-06 20:07 | 50.20859 | 8.87196 | 37850 ft | 439 kts | 198° |
| 2026-05-06 20:08 | 50.15016 | 8.84430 | 37859 ft | 439 kts | 198° |
| 2026-05-06 20:08 | 50.09172 | 8.81672 | 37863 ft | 439 kts | 198° |
| 2026-05-06 20:09 | 50.03231 | 8.79508 | 37857 ft | 440 kts | 188° |
| 2026-05-06 20:09 | 49.97156 | 8.78266 | 37859 ft | 440 kts | 189° |
| 2026-05-06 20:10 | 49.91087 | 8.77000 | 37847 ft | 440 kts | 189° |
| 2026-05-06 20:10 | 49.85013 | 8.75739 | 37844 ft | 440 kts | 189° |
| 2026-05-06 20:11 | 49.78935 | 8.74487 | 37847 ft | 441 kts | 189° |
| 2026-05-06 20:11 | 49.72852 | 8.73235 | 37850 ft | 441 kts | 189° |
| 2026-05-06 20:12 | 49.66804 | 8.71991 | 37855 ft | 442 kts | 189° |
| 2026-05-06 20:12 | 49.60710 | 8.70761 | 37850 ft | 442 kts | 188° |
| 2026-05-06 20:13 | 49.54619 | 8.69544 | 37855 ft | 442 kts | 188° |
| 2026-05-06 20:13 | 49.48522 | 8.68317 | 37862 ft | 442 kts | 189° |
| 2026-05-06 20:14 | 49.42420 | 8.67087 | 37868 ft | 442 kts | 189° |
| 2026-05-06 20:14 | 49.36321 | 8.65851 | 37863 ft | 442 kts | 188° |
| 2026-05-06 20:15 | 49.30222 | 8.64622 | 37864 ft | 442 kts | 189° |
| 2026-05-06 20:15 | 49.24125 | 8.63390 | 37863 ft | 442 kts | 189° |
| 2026-05-06 20:16 | 49.21164 | 8.62222 | 37854 ft | 440 kts | 204° |
| 2026-05-06 20:16 | 49.18468 | 8.60032 | 37849 ft | 439 kts | 211° |
| 2026-05-06 20:16 | 49.13204 | 8.55295 | 37852 ft | 439 kts | 211° |
| 2026-05-06 20:17 | 49.07937 | 8.50553 | 37860 ft | 440 kts | 211° |
| 2026-05-06 20:17 | 49.02656 | 8.45825 | 37867 ft | 440 kts | 210° |
| 2026-05-06 20:18 | 48.97374 | 8.41112 | 37877 ft | 440 kts | 210° |
| 2026-05-06 20:18 | 48.92083 | 8.36412 | 37885 ft | 440 kts | 210° |
| 2026-05-06 20:19 | 48.86827 | 8.31744 | 37893 ft | 440 kts | 210° |
| 2026-05-06 20:19 | 48.81538 | 8.27061 | 37895 ft | 440 kts | 210° |
| 2026-05-06 20:20 | 48.76241 | 8.22400 | 37892 ft | 440 kts | 210° |
| 2026-05-06 20:20 | 48.70947 | 8.17749 | 37893 ft | 440 kts | 210° |
| 2026-05-06 20:21 | 48.65653 | 8.13086 | 37897 ft | 440 kts | 210° |
| 2026-05-06 20:21 | 48.60362 | 8.08433 | 37898 ft | 440 kts | 210° |
| 2026-05-06 20:22 | 48.55063 | 8.03800 | 37897 ft | 440 kts | 210° |
| 2026-05-06 20:22 | 48.49763 | 7.99184 | 37921 ft | 440 kts | 210° |
| 2026-05-06 20:23 | 48.44458 | 7.94582 | 37927 ft | 440 kts | 210° |
| 2026-05-06 20:23 | 48.39157 | 7.89988 | 37928 ft | 440 kts | 210° |
| 2026-05-06 20:24 | 48.33857 | 7.85400 | 37923 ft | 440 kts | 210° |
| 2026-05-06 20:24 | 48.28558 | 7.80816 | 37925 ft | 440 kts | 210° |
| 2026-05-06 20:25 | 48.23253 | 7.76247 | 37920 ft | 440 kts | 210° |
| 2026-05-06 20:25 | 48.17947 | 7.71689 | 37920 ft | 439 kts | 210° |
| 2026-05-06 20:26 | 48.12637 | 7.67131 | 37918 ft | 440 kts | 210° |
| 2026-05-06 20:26 | 48.07322 | 7.62579 | 37906 ft | 441 kts | 210° |
| 2026-05-06 20:27 | 48.02034 | 7.58069 | 37906 ft | 441 kts | 210° |
| 2026-05-06 20:27 | 47.96660 | 7.53508 | 37907 ft | 441 kts | 210° |
| 2026-05-06 20:28 | 47.91357 | 7.49004 | 37915 ft | 441 kts | 210° |
| 2026-05-06 20:28 | 47.86018 | 7.44481 | 37920 ft | 442 kts | 210° |
| 2026-05-06 20:29 | 47.80676 | 7.39957 | 37933 ft | 442 kts | 210° |
| 2026-05-06 20:29 | 47.75332 | 7.35446 | 37931 ft | 442 kts | 210° |
| 2026-05-06 20:30 | 47.67312 | 7.28700 | 37945 ft | 442 kts | 210° |
| 2026-05-06 20:31 | 47.61963 | 7.24219 | 37952 ft | 442 kts | 210° |
| 2026-05-06 20:31 | 47.56612 | 7.19741 | 37942 ft | 442 kts | 210° |
| 2026-05-06 20:32 | 47.51259 | 7.15280 | 37944 ft | 442 kts | 210° |
| 2026-05-06 20:32 | 47.45905 | 7.10830 | 38004 ft | 441 kts | 210° |
| 2026-05-06 20:32 | 47.43224 | 7.08598 | 37896 ft | 440 kts | 210° |
| 2026-05-06 20:33 | 47.40578 | 7.06401 | 37948 ft | 435 kts | 210° |
| 2026-05-06 20:33 | 47.35272 | 7.01998 | 37946 ft | 439 kts | 210° |
| 2026-05-06 20:34 | 47.29937 | 6.97584 | 37945 ft | 441 kts | 210° |
| 2026-05-06 20:34 | 47.24576 | 6.93176 | 37941 ft | 441 kts | 210° |
| 2026-05-06 20:35 | 47.19212 | 6.88778 | 37945 ft | 441 kts | 210° |
| 2026-05-06 20:35 | 47.13858 | 6.84381 | 37944 ft | 441 kts | 210° |
| 2026-05-06 20:36 | 47.08504 | 6.79992 | 37949 ft | 441 kts | 210° |
| 2026-05-06 20:36 | 47.03148 | 6.75615 | 37952 ft | 441 kts | 210° |
| 2026-05-06 20:37 | 46.97789 | 6.71241 | 37947 ft | 441 kts | 210° |
| 2026-05-06 20:37 | 46.92467 | 6.66911 | 37954 ft | 441 kts | 210° |
| 2026-05-06 20:38 | 46.87101 | 6.62565 | 37959 ft | 441 kts | 210° |
| 2026-05-06 20:38 | 46.81738 | 6.58227 | 37959 ft | 441 kts | 210° |
| 2026-05-06 20:39 | 46.76378 | 6.53890 | 37949 ft | 440 kts | 210° |
| 2026-05-06 20:39 | 46.71019 | 6.49566 | 37975 ft | 440 kts | 210° |
| 2026-05-06 20:40 | 46.65658 | 6.45257 | 37968 ft | 440 kts | 210° |
| 2026-05-06 20:40 | 46.60290 | 6.40965 | 37964 ft | 440 kts | 210° |
| 2026-05-06 20:41 | 46.54920 | 6.36672 | 37960 ft | 440 kts | 210° |
| 2026-05-06 20:41 | 46.49549 | 6.32383 | 37959 ft | 441 kts | 210° |
| 2026-05-06 20:42 | 46.44175 | 6.28099 | 37962 ft | 441 kts | 210° |
| 2026-05-06 20:42 | 46.38798 | 6.23832 | 37972 ft | 441 kts | 210° |
| 2026-05-06 20:43 | 46.33423 | 6.19574 | 37984 ft | 440 kts | 210° |
| 2026-05-06 20:43 | 46.28046 | 6.15334 | 37988 ft | 440 kts | 209° |
| 2026-05-06 20:44 | 46.22242 | 6.12503 | 37987 ft | 445 kts | 191° |
| 2026-05-06 20:44 | 46.16126 | 6.11158 | 37993 ft | 445 kts | 191° |
| 2026-05-06 20:45 | 46.10010 | 6.09803 | 37981 ft | 445 kts | 191° |
| 2026-05-06 20:45 | 46.03896 | 6.08438 | 37992 ft | 445 kts | 191° |
| 2026-05-06 20:46 | 45.97823 | 6.07098 | 37981 ft | 444 kts | 191° |
| 2026-05-06 20:46 | 45.91677 | 6.05747 | 37988 ft | 444 kts | 191° |
| 2026-05-06 20:47 | 45.85578 | 6.04393 | 37990 ft | 443 kts | 191° |
| 2026-05-06 20:47 | 45.79522 | 6.03057 | 37979 ft | 443 kts | 191° |
| 2026-05-06 20:48 | 45.73425 | 6.01717 | 37982 ft | 443 kts | 191° |
| 2026-05-06 20:48 | 45.67330 | 6.00388 | 37985 ft | 443 kts | 191° |
| 2026-05-06 20:49 | 45.61239 | 5.99045 | 37978 ft | 443 kts | 192° |
| 2026-05-06 20:49 | 45.55150 | 5.97696 | 37984 ft | 443 kts | 192° |
| 2026-05-06 20:50 | 45.49059 | 5.96370 | 37987 ft | 443 kts | 192° |
| 2026-05-06 20:50 | 45.43009 | 5.94822 | 37990 ft | 441 kts | 195° |
| 2026-05-06 20:51 | 45.37035 | 5.92856 | 37991 ft | 440 kts | 196° |
| 2026-05-06 20:51 | 45.31083 | 5.90861 | 37995 ft | 439 kts | 196° |
| 2026-05-06 20:52 | 45.25123 | 5.88971 | 38002 ft | 439 kts | 195° |
| 2026-05-06 20:52 | 45.19154 | 5.87147 | 37996 ft | 438 kts | 195° |
| 2026-05-06 20:53 | 45.14159 | 5.85625 | 37999 ft | 438 kts | 195° |
| 2026-05-06 20:53 | 45.08205 | 5.83786 | 38001 ft | 437 kts | 195° |
| 2026-05-06 20:54 | 45.02256 | 5.81937 | 37986 ft | 438 kts | 195° |
| 2026-05-06 20:54 | 44.96309 | 5.80108 | 37997 ft | 437 kts | 195° |
| 2026-05-06 20:55 | 44.90372 | 5.78290 | 38003 ft | 437 kts | 195° |
| 2026-05-06 20:55 | 44.84434 | 5.76469 | 37985 ft | 436 kts | 196° |
| 2026-05-06 20:56 | 44.78508 | 5.74649 | 37993 ft | 436 kts | 196° |
| 2026-05-06 20:56 | 44.72625 | 5.72844 | 37998 ft | 436 kts | 196° |
| 2026-05-06 20:57 | 44.66700 | 5.71040 | 38016 ft | 436 kts | 195° |
| 2026-05-06 20:57 | 44.60774 | 5.69247 | 38002 ft | 436 kts | 195° |
| 2026-05-06 20:58 | 44.54836 | 5.67444 | 37997 ft | 437 kts | 195° |
| 2026-05-06 20:58 | 44.48898 | 5.65639 | 37994 ft | 437 kts | 195° |
| 2026-05-06 20:59 | 44.42953 | 5.63838 | 37990 ft | 437 kts | 195° |
| 2026-05-06 20:59 | 44.37055 | 5.61828 | 37992 ft | 434 kts | 203° |
| 2026-05-06 21:00 | 44.31451 | 5.58757 | 37992 ft | 433 kts | 204° |
| 2026-05-06 21:00 | 44.25847 | 5.55681 | 37988 ft | 432 kts | 204° |
| 2026-05-06 21:01 | 44.20247 | 5.52616 | 37993 ft | 432 kts | 204° |
| 2026-05-06 21:01 | 44.14650 | 5.49570 | 37993 ft | 432 kts | 204° |
| 2026-05-06 21:02 | 44.09051 | 5.46529 | 37970 ft | 432 kts | 204° |
| 2026-05-06 21:02 | 44.03460 | 5.43491 | 37983 ft | 431 kts | 204° |
| 2026-05-06 21:03 | 43.97873 | 5.40462 | 37988 ft | 431 kts | 204° |
| 2026-05-06 21:03 | 43.92284 | 5.37437 | 37991 ft | 431 kts | 204° |
| 2026-05-06 21:04 | 43.86703 | 5.34419 | 37972 ft | 430 kts | 204° |
| 2026-05-06 21:04 | 43.81126 | 5.31410 | 37989 ft | 431 kts | 204° |
| 2026-05-06 21:05 | 43.75536 | 5.28402 | 37985 ft | 431 kts | 204° |
| 2026-05-06 21:05 | 43.69941 | 5.25392 | 37964 ft | 432 kts | 205° |
| 2026-05-06 21:06 | 43.64344 | 5.22383 | 37982 ft | 432 kts | 205° |
| 2026-05-06 21:06 | 43.58744 | 5.19388 | 38007 ft | 432 kts | 204° |
| 2026-05-06 21:07 | 43.53181 | 5.16418 | 38019 ft | 432 kts | 204° |
| 2026-05-06 21:07 | 43.47581 | 5.13438 | 38020 ft | 431 kts | 204° |
| 2026-05-06 21:08 | 43.41986 | 5.10465 | 38023 ft | 431 kts | 204° |
| 2026-05-06 21:08 | 43.36659 | 5.06850 | 38015 ft | 425 kts | 217° |
| 2026-05-06 21:09 | 43.31795 | 5.02242 | 37982 ft | 425 kts | 217° |
| 2026-05-06 21:09 | 43.26932 | 4.97652 | 37995 ft | 424 kts | 217° |
| 2026-05-06 21:10 | 43.22071 | 4.93082 | 38008 ft | 424 kts | 217° |
| 2026-05-06 21:10 | 43.17200 | 4.88518 | 37995 ft | 424 kts | 217° |
| 2026-05-06 21:11 | 43.12325 | 4.83959 | 37969 ft | 425 kts | 217° |
| 2026-05-06 21:11 | 43.07478 | 4.79432 | 37990 ft | 424 kts | 217° |
| 2026-05-06 21:12 | 43.02414 | 4.75255 | 37995 ft | 426 kts | 212° |
| 2026-05-06 21:12 | 42.97233 | 4.71323 | 38002 ft | 426 kts | 212° |
| 2026-05-06 21:13 | 42.92052 | 4.67392 | 37988 ft | 426 kts | 212° |
| 2026-05-06 21:13 | 42.86871 | 4.63474 | 38005 ft | 426 kts | 212° |
| 2026-05-06 21:14 | 42.81691 | 4.59572 | 38009 ft | 425 kts | 212° |
| 2026-05-06 21:14 | 42.76512 | 4.55680 | 38027 ft | 425 kts | 212° |
| 2026-05-06 21:15 | 42.71332 | 4.51780 | 38016 ft | 426 kts | 212° |
| 2026-05-06 21:15 | 42.66143 | 4.47887 | 38016 ft | 426 kts | 212° |
| 2026-05-06 21:16 | 42.60951 | 4.44003 | 38020 ft | 426 kts | 212° |
| 2026-05-06 21:16 | 42.55751 | 4.40122 | 38021 ft | 426 kts | 212° |
| 2026-05-06 21:17 | 42.50557 | 4.36234 | 38007 ft | 426 kts | 212° |
| 2026-05-06 21:17 | 42.45364 | 4.32363 | 38021 ft | 426 kts | 212° |
| 2026-05-06 21:18 | 42.40167 | 4.28511 | 38027 ft | 426 kts | 212° |
| 2026-05-06 21:18 | 42.34976 | 4.24666 | 38028 ft | 425 kts | 212° |
| 2026-05-06 21:19 | 42.29787 | 4.20821 | 38016 ft | 425 kts | 212° |
| 2026-05-06 21:19 | 42.24608 | 4.16990 | 38030 ft | 424 kts | 212° |
| 2026-05-06 21:20 | 42.19422 | 4.13177 | 38031 ft | 424 kts | 212° |
| 2026-05-06 21:20 | 42.14235 | 4.09371 | 38026 ft | 424 kts | 212° |
| 2026-05-06 21:21 | 42.09085 | 4.05593 | 38020 ft | 424 kts | 212° |
| 2026-05-06 21:21 | 42.03912 | 4.01789 | 38027 ft | 423 kts | 212° |
| 2026-05-06 21:22 | 41.98741 | 3.97997 | 38029 ft | 423 kts | 212° |
| 2026-05-06 21:22 | 41.93563 | 3.94229 | 38027 ft | 423 kts | 212° |
| 2026-05-06 21:23 | 41.88355 | 3.90553 | 38011 ft | 423 kts | 211° |
| 2026-05-06 21:23 | 41.83080 | 3.87048 | 38025 ft | 423 kts | 210° |
| 2026-05-06 21:24 | 41.77812 | 3.83571 | 38032 ft | 422 kts | 210° |
| 2026-05-06 21:24 | 41.72561 | 3.80059 | 38044 ft | 422 kts | 210° |
| 2026-05-06 21:25 | 41.67312 | 3.76541 | 38011 ft | 422 kts | 210° |
| 2026-05-06 21:25 | 41.62059 | 3.73031 | 38013 ft | 422 kts | 210° |
| 2026-05-06 21:26 | 41.56800 | 3.69536 | 38018 ft | 422 kts | 210° |
| 2026-05-06 21:26 | 41.51542 | 3.66035 | 38014 ft | 422 kts | 210° |
| 2026-05-06 21:27 | 41.46285 | 3.62536 | 38005 ft | 422 kts | 211° |
| 2026-05-06 21:27 | 41.41069 | 3.59078 | 38017 ft | 421 kts | 211° |
| 2026-05-06 21:28 | 41.35824 | 3.55605 | 38019 ft | 421 kts | 210° |
| 2026-05-06 21:28 | 41.30584 | 3.52143 | 38018 ft | 420 kts | 210° |
| 2026-05-06 21:29 | 41.25346 | 3.48691 | 38009 ft | 420 kts | 211° |
| 2026-05-06 21:29 | 41.20111 | 3.45252 | 38015 ft | 420 kts | 209° |
| 2026-05-06 21:30 | 41.14445 | 3.43081 | 38013 ft | 428 kts | 196° |
| 2026-05-06 21:30 | 41.08602 | 3.41551 | 38012 ft | 428 kts | 197° |
| 2026-05-06 21:31 | 41.02769 | 3.40006 | 38004 ft | 427 kts | 197° |
| 2026-05-06 21:31 | 40.96947 | 3.38458 | 38014 ft | 426 kts | 197° |
| 2026-05-06 21:32 | 40.91129 | 3.36933 | 38005 ft | 426 kts | 197° |
| 2026-05-06 21:32 | 40.82410 | 3.34664 | 37992 ft | 425 kts | 197° |
| 2026-05-06 21:33 | 40.76611 | 3.33145 | 38000 ft | 425 kts | 197° |
| 2026-05-06 21:33 | 40.70814 | 3.31633 | 38006 ft | 424 kts | 197° |
| 2026-05-06 21:34 | 40.65023 | 3.30119 | 38001 ft | 424 kts | 197° |
| 2026-05-06 21:34 | 40.59271 | 3.28623 | 38001 ft | 424 kts | 197° |
| 2026-05-06 21:35 | 40.53485 | 3.27119 | 37997 ft | 424 kts | 197° |
| 2026-05-06 21:35 | 40.47702 | 3.25600 | 37997 ft | 424 kts | 197° |
| 2026-05-06 21:36 | 40.41920 | 3.24095 | 37962 ft | 424 kts | 197° |
| 2026-05-06 21:36 | 40.36131 | 3.22604 | 37983 ft | 423 kts | 197° |
| 2026-05-06 21:37 | 40.30353 | 3.21117 | 37992 ft | 423 kts | 197° |
| 2026-05-06 21:37 | 40.24572 | 3.19637 | 37996 ft | 423 kts | 197° |
| 2026-05-06 21:38 | 40.18797 | 3.18160 | 37974 ft | 423 kts | 197° |
| 2026-05-06 21:38 | 40.13032 | 3.16680 | 37992 ft | 422 kts | 197° |
| 2026-05-06 21:39 | 40.07276 | 3.15192 | 37998 ft | 421 kts | 197° |
| 2026-05-06 21:39 | 40.01519 | 3.13713 | 37996 ft | 421 kts | 197° |
| 2026-05-06 21:40 | 39.95771 | 3.12239 | 37983 ft | 421 kts | 197° |
| 2026-05-06 21:40 | 39.90360 | 3.09738 | 37991 ft | 408 kts | 214° |
| 2026-05-06 21:41 | 39.86253 | 3.06724 | 37994 ft | 408 kts | 214° |
| 2026-05-06 21:41 | 39.81304 | 3.03111 | 38000 ft | 408 kts | 213° |
| 2026-05-06 21:42 | 39.76344 | 2.99509 | 37950 ft | 409 kts | 214° |
| 2026-05-06 21:42 | 39.71375 | 2.95912 | 37974 ft | 409 kts | 213° |
| 2026-05-06 21:43 | 39.66410 | 2.92314 | 37985 ft | 409 kts | 213° |
| 2026-05-06 21:43 | 39.61445 | 2.88720 | 37989 ft | 409 kts | 213° |
| 2026-05-06 21:44 | 39.56476 | 2.85130 | 37991 ft | 409 kts | 213° |
| 2026-05-06 21:44 | 39.51505 | 2.81553 | 37985 ft | 408 kts | 213° |
| 2026-05-06 21:45 | 39.46538 | 2.77991 | 38008 ft | 408 kts | 213° |
| 2026-05-06 21:45 | 39.42124 | 2.73581 | 38003 ft | 399 kts | 231° |
| 2026-05-06 21:46 | 39.38659 | 2.68069 | 37998 ft | 397 kts | 233° |
| 2026-05-06 21:46 | 39.35167 | 2.62522 | 37990 ft | 398 kts | 233° |
| 2026-05-06 21:47 | 39.31659 | 2.56982 | 37955 ft | 398 kts | 233° |
| 2026-05-06 21:47 | 39.28154 | 2.51449 | 37982 ft | 398 kts | 233° |
| 2026-05-06 21:48 | 39.24657 | 2.45931 | 37992 ft | 397 kts | 233° |
| 2026-05-06 21:48 | 39.21163 | 2.40423 | 37992 ft | 396 kts | 233° |
| 2026-05-06 21:49 | 39.17672 | 2.34922 | 37990 ft | 396 kts | 233° |
| 2026-05-06 21:49 | 39.14178 | 2.29435 | 37875 ft | 395 kts | 233° |
| 2026-05-06 21:50 | 39.12434 | 2.26704 | 36992 ft | 396 kts | 233° |
| 2026-05-06 21:50 | 39.10681 | 2.23960 | 35931 ft | 398 kts | 233° |
| 2026-05-06 21:50 | 39.08921 | 2.21204 | 34868 ft | 398 kts | 232° |
| 2026-05-06 21:50 | 39.07160 | 2.18447 | 33773 ft | 399 kts | 232° |
| 2026-05-06 21:51 | 39.05394 | 2.15684 | 32441 ft | 401 kts | 232° |
| 2026-05-06 21:51 | 39.03620 | 2.12914 | 31437 ft | 398 kts | 232° |
| 2026-05-06 21:51 | 39.01899 | 2.10231 | 30650 ft | 391 kts | 232° |
| 2026-05-06 21:51 | 39.00174 | 2.07545 | 29613 ft | 388 kts | 232° |
| 2026-05-06 21:52 | 38.98455 | 2.04872 | 28562 ft | 389 kts | 232° |
| 2026-05-06 21:52 | 38.96722 | 2.02180 | 27594 ft | 393 kts | 232° |
| 2026-05-06 21:52 | 38.94968 | 1.99453 | 26518 ft | 398 kts | 232° |
| 2026-05-06 21:52 | 38.93196 | 1.96693 | 25468 ft | 403 kts | 232° |
| 2026-05-06 21:53 | 38.91581 | 1.93719 | 24104 ft | 412 kts | 240° |
| 2026-05-06 21:53 | 38.90329 | 1.90342 | 22930 ft | 425 kts | 249° |
| 2026-05-06 21:53 | 38.89471 | 1.86703 | 21922 ft | 427 kts | 255° |
| 2026-05-06 21:53 | 38.88732 | 1.83025 | 20943 ft | 425 kts | 255° |
| 2026-05-06 21:54 | 38.87984 | 1.79370 | 19957 ft | 422 kts | 255° |
| 2026-05-06 21:54 | 38.87234 | 1.75743 | 18983 ft | 420 kts | 255° |
| 2026-05-06 21:54 | 38.86483 | 1.72131 | 18001 ft | 418 kts | 255° |
| 2026-05-06 21:54 | 38.85738 | 1.68547 | 17004 ft | 414 kts | 255° |
| 2026-05-06 21:55 | 38.84996 | 1.64998 | 16076 ft | 410 kts | 255° |
| 2026-05-06 21:55 | 38.84264 | 1.61485 | 15161 ft | 405 kts | 255° |
| 2026-05-06 21:55 | 38.83539 | 1.58011 | 14298 ft | 401 kts | 255° |
| 2026-05-06 21:55 | 38.82801 | 1.54584 | 13629 ft | 393 kts | 254° |
| 2026-05-06 21:56 | 38.82063 | 1.51265 | 13351 ft | 381 kts | 254° |
| 2026-05-06 21:56 | 38.81349 | 1.48083 | 13186 ft | 361 kts | 254° |
| 2026-05-06 21:56 | 38.80669 | 1.45058 | 12893 ft | 346 kts | 254° |
| 2026-05-06 21:56 | 38.79865 | 1.42224 | 12633 ft | 333 kts | 244° |
| 2026-05-06 21:57 | 38.78795 | 1.39640 | 12375 ft | 323 kts | 243° |
| 2026-05-06 21:57 | 38.77758 | 1.37148 | 12123 ft | 312 kts | 243° |
| 2026-05-06 21:57 | 38.76753 | 1.34720 | 11869 ft | 304 kts | 243° |
| 2026-05-06 21:57 | 38.75777 | 1.32360 | 11614 ft | 296 kts | 243° |
| 2026-05-06 21:58 | 38.74823 | 1.30055 | 11354 ft | 290 kts | 243° |
| 2026-05-06 21:58 | 38.73886 | 1.27801 | 11115 ft | 284 kts | 243° |
| 2026-05-06 21:58 | 38.72967 | 1.25588 | 10871 ft | 279 kts | 243° |
| 2026-05-06 21:58 | 38.72062 | 1.23417 | 10621 ft | 274 kts | 244° |
| 2026-05-06 21:59 | 38.71172 | 1.21280 | 10370 ft | 269 kts | 244° |
| 2026-05-06 21:59 | 38.70308 | 1.19210 | 10131 ft | 259 kts | 243° |
| 2026-05-06 21:59 | 38.69464 | 1.17192 | 9899 ft | 256 kts | 244° |
| 2026-05-06 21:59 | 38.68633 | 1.15195 | 9758 ft | 255 kts | 243° |
| 2026-05-06 22:00 | 38.67798 | 1.13192 | 9420 ft | 254 kts | 244° |
| 2026-05-06 22:00 | 38.66965 | 1.11202 | 9043 ft | 253 kts | 243° |
| 2026-05-06 22:00 | 38.66145 | 1.09250 | 8679 ft | 252 kts | 243° |
| 2026-05-06 22:00 | 38.65317 | 1.07278 | 8299 ft | 251 kts | 243° |
| 2026-05-06 22:01 | 38.64586 | 1.05259 | 7920 ft | 250 kts | 253° |
| 2026-05-06 22:01 | 38.64252 | 1.03084 | 7644 ft | 250 kts | 262° |
| 2026-05-06 22:01 | 38.63985 | 1.00884 | 7365 ft | 249 kts | 262° |
| 2026-05-06 22:01 | 38.64057 | 0.98716 | 7078 ft | 242 kts | 286° |
| 2026-05-06 22:02 | 38.64824 | 0.96853 | 6846 ft | 234 kts | 312° |
| 2026-05-06 22:02 | 38.66065 | 0.95620 | 6718 ft | 221 kts | 333° |
| 2026-05-06 22:02 | 38.67421 | 0.94901 | 6642 ft | 204 kts | 350° |
| 2026-05-06 22:02 | 38.68769 | 0.95003 | 6511 ft | 188 kts | 19° |
| 2026-05-06 22:03 | 38.69858 | 0.95839 | 6251 ft | 182 kts | 47° |
| 2026-05-06 22:03 | 38.70545 | 0.97161 | 5967 ft | 177 kts | 63° |
| 2026-05-06 22:03 | 38.71123 | 0.98541 | 5688 ft | 174 kts | 63° |
| 2026-05-06 22:03 | 38.71691 | 0.99895 | 5432 ft | 171 kts | 64° |
| 2026-05-06 22:04 | 38.72250 | 1.01229 | 5190 ft | 168 kts | 63° |
| 2026-05-06 22:04 | 38.72796 | 1.02533 | 4965 ft | 164 kts | 65° |
| 2026-05-06 22:04 | 38.73329 | 1.03804 | 4744 ft | 160 kts | 65° |
| 2026-05-06 22:04 | 38.73850 | 1.05048 | 4523 ft | 156 kts | 64° |
| 2026-05-06 22:05 | 38.74354 | 1.06254 | 4313 ft | 152 kts | 64° |
| 2026-05-06 22:05 | 38.74845 | 1.07426 | 4114 ft | 147 kts | 66° |
| 2026-05-06 22:05 | 38.75322 | 1.08567 | 3917 ft | 144 kts | 65° |
| 2026-05-06 22:05 | 38.75792 | 1.09691 | 3725 ft | 143 kts | 65° |
| 2026-05-06 22:06 | 38.76258 | 1.10804 | 3596 ft | 140 kts | 67° |
| 2026-05-06 22:06 | 38.76723 | 1.11920 | 3571 ft | 143 kts | 66° |
| 2026-05-06 22:06 | 38.77190 | 1.13037 | 3511 ft | 142 kts | 66° |
| 2026-05-06 22:06 | 38.77658 | 1.14158 | 3464 ft | 143 kts | 65° |
| 2026-05-06 22:07 | 38.78128 | 1.15284 | 3404 ft | 143 kts | 65° |
| 2026-05-06 22:07 | 38.78600 | 1.16417 | 3307 ft | 144 kts | 65° |
| 2026-05-06 22:07 | 38.79073 | 1.17550 | 3158 ft | 144 kts | 65° |
| 2026-05-06 22:07 | 38.79544 | 1.18681 | 2986 ft | 144 kts | 64° |
| 2026-05-06 22:08 | 38.80014 | 1.19805 | 2796 ft | 142 kts | 65° |
| 2026-05-06 22:08 | 38.80478 | 1.20920 | 2610 ft | 140 kts | 66° |
| 2026-05-06 22:08 | 38.80927 | 1.21999 | 2434 ft | 138 kts | 64° |
| 2026-05-06 22:08 | 38.81380 | 1.23088 | 2247 ft | 135 kts | 65° |
| 2026-05-06 22:09 | 38.81820 | 1.24145 | 2079 ft | 136 kts | 64° |
| 2026-05-06 22:09 | 38.82270 | 1.25226 | 1891 ft | 135 kts | 65° |
| 2026-05-06 22:09 | 38.82704 | 1.26267 | 1727 ft | 132 kts | 64° |
| 2026-05-06 22:09 | 38.83120 | 1.27270 | 1530 ft | 126 kts | 65° |
| 2026-05-06 22:10 | 38.83526 | 1.28246 | 1368 ft | 122 kts | 65° |
| 2026-05-06 22:10 | 38.83928 | 1.29216 | 1203 ft | 124 kts | 66° |
| 2026-05-06 22:10 | 38.84333 | 1.30190 | 1043 ft | 124 kts | 64° |
| 2026-05-06 22:10 | 38.84736 | 1.31161 | 856 ft | 123 kts | 66° |
| 2026-05-06 22:11 | 38.85137 | 1.32127 | 717 ft | 123 kts | 65° |
| 2026-05-06 22:11 | 38.85541 | 1.33100 | 544 ft | 123 kts | 63° |
| 2026-05-06 22:11 | 38.85946 | 1.34078 | 383 ft | 124 kts | 64° |
| 2026-05-06 22:11 | 38.86355 | 1.35063 | 220 ft | 125 kts | 62° |
| 2026-05-06 22:12 | 38.86762 | 1.36045 | 52 ft | 124 kts | 63° |
| 2026-05-06 22:12 | 38.87127 | 1.36930 | 11 ft | 85 kts | 62° |
| 2026-05-06 22:12 | 38.87270 | 1.37281 | 11 ft | 19 kts | 62° |
| 2026-05-06 22:12 | 38.87345 | 1.37405 | 10 ft | 19 kts | 36° |
| 2026-05-06 22:13 | 38.87449 | 1.37497 | 10 ft | 12 kts | 32° |
| 2026-05-06 22:13 | 38.87463 | 1.37509 | 10 ft | 2 kts | 32° |
| 2026-05-06 22:13 | 38.87468 | 1.37513 | 10 ft | 0 kts | 33° |
| 2026-05-06 22:13 | 38.87469 | 1.37514 | 10 ft | 1 kts | 33° |
| 2026-05-06 22:14 | 38.87485 | 1.37527 | 9 ft | 5 kts | 33° |
| 2026-05-06 22:14 | 38.87525 | 1.37555 | 9 ft | 8 kts | 14° |
| 2026-05-06 22:14 | 38.87548 | 1.37498 | 9 ft | 10 kts | 253° |
| 2026-05-06 22:14 | 38.87508 | 1.37409 | 9 ft | 13 kts | 240° |
| 2026-05-06 22:15 | 38.87460 | 1.37296 | 9 ft | 16 kts | 244° |
| 2026-05-06 22:15 | 38.87408 | 1.37156 | 10 ft | 19 kts | 245° |
| 2026-05-06 22:15 | 38.87357 | 1.37033 | 9 ft | 9 kts | 239° |
| 2026-05-06 22:15 | 38.87318 | 1.36950 | 10 ft | 12 kts | 241° |
| 2026-05-06 22:16 | 38.87302 | 1.36871 | 9 ft | 10 kts | 292° |
| 2026-05-06 22:16 | 38.87369 | 1.36820 | 9 ft | 13 kts | 336° |
| 2026-05-06 22:16 | 38.87449 | 1.36823 | 10 ft | 13 kts | 43° |
| 2026-05-06 22:16 | 38.87492 | 1.36934 | 9 ft | 13 kts | 62° |
| 2026-05-06 22:17 | 38.87522 | 1.37006 | 10 ft | 9 kts | 62° |
| 2026-05-06 22:17 | 38.87538 | 1.37034 | 9 ft | 0 kts | 30° |
| 2026-05-06 22:17 | 38.87546 | 1.37031 | 9 ft | 2 kts | 344° |
| 2026-05-06 22:17 | 38.87559 | 1.37014 | 10 ft | 4 kts | 321° |
| 2026-05-06 22:18 | 38.87590 | 1.36993 | 9 ft | 2 kts | 333° |
| 2026-05-06 22:18 | 38.87593 | 1.36991 | 9 ft | 0 kts | 333° |